Terminal Aerodrome Forecast
Issued by NWS

Current Version | Previous Version | Text Only | Print | Product List | Glossary Off
Versions: 1 2 3 4 5 6 7 8 9 10 11 12 13 14 15 16 17

756
FTUS41 KPBZ 262320
TAFMGW
TAF
KMGW 262320Z 2700/2724 24006KT P6SM SKC
     FM271200 22010KT P6SM OVC050
     FM271600 21012KT P6SM OVC025
     FM272100 VRB05KT P6SM OVC090=

USA.gov is the U.S. government's official web portal to all federal, state and local government web resources and services.